createdAt,value
2023-01-24T00:01:40.225Z,-1.99
2023-01-24T00:04:13.208Z,-2.02
2023-01-24T00:06:45.906Z,-2.04
2023-01-24T00:09:18.750Z,-2.08
2023-01-24T00:11:51.542Z,-2.08
2023-01-24T00:14:24.397Z,-2.07
2023-01-24T00:16:57.225Z,-2.10
2023-01-24T00:19:30.152Z,-2.12
2023-01-24T00:22:05.494Z,-2.16
2023-01-24T00:24:38.613Z,-2.19
2023-01-24T00:27:11.700Z,-2.22
2023-01-24T00:29:44.503Z,-2.28
2023-01-24T00:32:17.306Z,-2.31
2023-01-24T00:34:50.185Z,-2.34
2023-01-24T00:37:23.817Z,-2.37
2023-01-24T00:39:56.904Z,-2.41
2023-01-24T00:42:29.968Z,-2.46
2023-01-24T00:45:04.455Z,-2.49
2023-01-24T00:47:37.605Z,-2.50
2023-01-24T00:50:11.641Z,-2.52
2023-01-24T00:52:45.293Z,-2.52
2023-01-24T00:55:19.845Z,-2.54
2023-01-24T00:57:52.859Z,-2.57
2023-01-24T01:00:27.411Z,-2.59
2023-01-24T01:03:00.365Z,-2.60
2023-01-24T01:05:33.480Z,-2.65
2023-01-24T01:08:06.859Z,-2.69
2023-01-24T01:10:40.594Z,-2.73
2023-01-24T01:13:15.537Z,-2.73
2023-01-24T01:15:48.462Z,-2.73
2023-01-24T01:18:21.656Z,-2.74
2023-01-24T01:20:54.914Z,-2.75
2023-01-24T01:23:27.845Z,-2.77
2023-01-24T01:26:06.883Z,-2.78
2023-01-24T01:28:40.084Z,-2.80
2023-01-24T01:31:13.004Z,-2.80
2023-01-24T01:33:48.872Z,-2.82
2023-01-24T01:36:21.622Z,-2.84
2023-01-24T01:38:54.700Z,-2.87
2023-01-24T01:41:28.505Z,-2.88
2023-01-24T01:44:40.925Z,-2.92
2023-01-24T01:47:36.510Z,-2.93
2023-01-24T01:50:30.390Z,-2.96
2023-01-24T01:53:03.908Z,-2.97
2023-01-24T01:55:38.650Z,-2.99
2023-01-24T01:58:11.387Z,-2.98
2023-01-24T02:00:46.033Z,-3.01
2023-01-24T02:03:41.634Z,-3.01
2023-01-24T02:06:34.120Z,-3.02
2023-01-24T02:09:08.035Z,-3.04
2023-01-24T02:11:42.253Z,-3.08
2023-01-24T02:14:37.182Z,-3.10
2023-01-24T02:17:10.212Z,-3.13
2023-01-24T02:19:59.805Z,-3.17
2023-01-24T02:22:49.782Z,-3.19
2023-01-24T02:26:04.300Z,-3.21
2023-01-24T02:28:39.661Z,-3.22
2023-01-24T02:31:12.591Z,-3.24
2023-01-24T02:33:45.890Z,-3.27
2023-01-24T02:36:42.392Z,-3.29
2023-01-24T02:39:19.064Z,-3.31
2023-01-24T02:42:10.768Z,-3.31
2023-01-24T02:44:52.621Z,-3.32
2023-01-24T02:47:29.365Z,-3.32
2023-01-24T02:50:02.954Z,-3.33
2023-01-24T02:52:54.245Z,-3.34
2023-01-24T02:55:27.646Z,-3.36
2023-01-24T02:58:07.337Z,-3.34
2023-01-24T03:00:44.139Z,-3.32
2023-01-24T03:03:18.542Z,-3.33
2023-01-24T03:06:01.823Z,-3.32
2023-01-24T03:08:42.619Z,-3.30
2023-01-24T03:11:17.308Z,-3.30
2023-01-24T03:14:08.415Z,-3.27
2023-01-24T03:16:59.993Z,-3.23
2023-01-24T03:19:51.483Z,-3.20
2023-01-24T03:22:42.383Z,-3.18
2023-01-24T03:25:33.288Z,-3.16
2023-01-24T03:28:25.848Z,-3.17
2023-01-24T03:31:16.638Z,-3.17
2023-01-24T03:34:07.461Z,-3.16
2023-01-24T03:36:40.484Z,-3.13
2023-01-24T03:39:32.273Z,-3.12
2023-01-24T03:42:05.967Z,-3.14
2023-01-24T03:44:39.303Z,-3.15
2023-01-24T03:47:12.089Z,-3.15
2023-01-24T03:50:03.087Z,-3.18
2023-01-24T03:52:36.540Z,-3.20
2023-01-24T03:55:11.756Z,-3.19
2023-01-24T03:57:46.914Z,-3.21
2023-01-24T04:00:21.283Z,-3.19
2023-01-24T04:02:56.197Z,-3.19
2023-01-24T04:05:29.354Z,-3.16
2023-01-24T04:08:02.397Z,-3.14
2023-01-24T04:10:35.491Z,-3.12
2023-01-24T04:13:08.381Z,-3.13
2023-01-24T04:15:42.917Z,-3.13
2023-01-24T04:18:29.714Z,-3.13
2023-01-24T04:21:06.956Z,-3.13
2023-01-24T04:23:41.593Z,-3.12
2023-01-24T04:26:15.418Z,-3.12
2023-01-24T04:28:48.684Z,-3.15
2023-01-24T04:31:22.314Z,-3.16
2023-01-24T04:34:11.822Z,-3.15
2023-01-24T04:36:44.537Z,-3.16
2023-01-24T04:39:18.049Z,-3.14
2023-01-24T04:41:52.402Z,-3.12
2023-01-24T04:44:25.406Z,-3.14
2023-01-24T04:46:58.770Z,-3.20
2023-01-24T04:49:31.864Z,-3.27
2023-01-24T04:52:04.691Z,-3.32
2023-01-24T04:54:43.166Z,-3.36
2023-01-24T04:57:16.048Z,-3.39
2023-01-24T04:59:49.280Z,-3.36
2023-01-24T05:02:24.571Z,-3.34
2023-01-24T05:04:57.976Z,-3.34
2023-01-24T05:07:31.565Z,-3.32
2023-01-24T05:10:06.791Z,-3.31
2023-01-24T05:12:41.114Z,-3.28
2023-01-24T05:15:15.726Z,-3.23
2023-01-24T05:17:49.096Z,-3.23
2023-01-24T05:20:23.778Z,-3.23
2023-01-24T05:23:00.838Z,-3.28
2023-01-24T05:25:34.538Z,-3.32
2023-01-24T05:28:08.425Z,-3.32
2023-01-24T05:30:43.241Z,-3.33
2023-01-24T05:33:17.779Z,-3.36
2023-01-24T05:35:51.081Z,-3.37
2023-01-24T05:38:24.050Z,-3.38
2023-01-24T05:41:08.521Z,-3.40
2023-01-24T05:43:42.053Z,-3.42
2023-01-24T05:46:22.403Z,-3.41
2023-01-24T05:48:57.461Z,-3.42
2023-01-24T05:51:30.850Z,-3.41
2023-01-24T05:54:03.853Z,-3.39
2023-01-24T05:56:54.981Z,-3.36
2023-01-24T05:59:28.293Z,-3.35
2023-01-24T06:02:02.555Z,-3.31
2023-01-24T06:04:35.893Z,-3.26
2023-01-24T06:07:08.859Z,-3.25
2023-01-24T06:09:41.994Z,-3.21
2023-01-24T06:12:15.095Z,-3.17
2023-01-24T06:14:48.624Z,-3.16
2023-01-24T06:17:21.721Z,-3.19
2023-01-24T06:19:55.155Z,-3.21
2023-01-24T06:22:52.972Z,-3.24
2023-01-24T06:25:28.636Z,-3.27
2023-01-24T06:28:02.103Z,-3.29
2023-01-24T06:30:35.727Z,-3.28
2023-01-24T06:33:33.965Z,-3.24
2023-01-24T06:36:32.368Z,-3.21
2023-01-24T06:39:07.873Z,-3.17
2023-01-24T06:41:41.171Z,-3.17
2023-01-24T06:44:14.654Z,-3.16
2023-01-24T06:46:48.058Z,-3.12
2023-01-24T06:49:21.000Z,-3.08
2023-01-24T06:51:54.524Z,-3.08
2023-01-24T06:54:27.284Z,-3.04
2023-01-24T06:57:00.092Z,-2.99
2023-01-24T06:59:34.479Z,-2.93
2023-01-24T07:02:07.886Z,-2.82
2023-01-24T07:04:41.475Z,-2.75
2023-01-24T07:07:15.375Z,-2.70
2023-01-24T07:09:48.256Z,-2.67
2023-01-24T07:12:21.099Z,-2.64
2023-01-24T07:14:54.098Z,-2.65
2023-01-24T07:17:27.221Z,-2.61
2023-01-24T07:20:01.140Z,-2.58
2023-01-24T07:22:37.184Z,-2.57
2023-01-24T07:25:22.464Z,-2.60
2023-01-24T07:27:55.868Z,-2.59
2023-01-24T07:30:30.385Z,-2.59
2023-01-24T07:33:04.041Z,-2.57
2023-01-24T07:35:37.585Z,-2.53
2023-01-24T07:38:10.989Z,-2.51
2023-01-24T07:40:44.384Z,-2.52
2023-01-24T07:43:17.643Z,-2.50
2023-01-24T07:45:52.856Z,-2.49
2023-01-24T07:48:25.918Z,-2.42
2023-01-24T07:51:03.201Z,-2.37
2023-01-24T07:53:36.773Z,-2.30
2023-01-24T07:56:17.563Z,-2.24
2023-01-24T07:58:45.655Z,-2.15
2023-01-24T08:01:24.926Z,-2.09
2023-01-24T08:03:59.689Z,-2.05
2023-01-24T08:06:33.088Z,-2.01
2023-01-24T08:09:07.103Z,-1.97
2023-01-24T08:11:40.112Z,-1.94
2023-01-24T08:14:13.349Z,-1.91
2023-01-24T08:16:46.257Z,-1.87
2023-01-24T08:19:34.533Z,-1.82
2023-01-24T08:21:53.876Z,-1.78
2023-01-24T08:24:27.456Z,-1.74
2023-01-24T08:27:01.871Z,-1.69
2023-01-24T08:29:35.571Z,-1.65
2023-01-24T08:32:08.609Z,-1.69
2023-01-24T08:34:41.725Z,-1.66
2023-01-24T08:37:14.587Z,-1.62
2023-01-24T08:39:47.879Z,-1.57
2023-01-24T08:42:21.282Z,-1.53
2023-01-24T08:44:54.347Z,-1.55
2023-01-24T08:47:28.513Z,-1.55
2023-01-24T08:50:02.167Z,-1.49
2023-01-24T08:52:34.991Z,-1.42
2023-01-24T08:55:08.475Z,-1.32
2023-01-24T08:57:41.655Z,-1.27
2023-01-24T09:00:16.180Z,-1.29
2023-01-24T09:02:48.304Z,-1.31
2023-01-24T09:05:21.812Z,-1.29
2023-01-24T09:07:54.731Z,-1.27
2023-01-24T09:10:27.779Z,-1.23
2023-01-24T09:13:01.125Z,-1.22
2023-01-24T09:15:34.857Z,-1.17
2023-01-24T09:18:08.076Z,-1.15
2023-01-24T09:20:41.617Z,-1.16
2023-01-24T09:23:16.088Z,-1.17
2023-01-24T09:25:54.345Z,-1.16
2023-01-24T09:28:27.423Z,-1.15
2023-01-24T09:31:00.419Z,-1.16
2023-01-24T09:33:33.932Z,-1.16
2023-01-24T09:36:07.253Z,-1.13
2023-01-24T09:38:40.304Z,-1.06
2023-01-24T09:41:42.437Z,-1.05
2023-01-24T09:44:24.853Z,-1.03
2023-01-24T09:46:58.631Z,-0.99
2023-01-24T09:49:51.188Z,-0.92
2023-01-24T09:52:39.908Z,-0.91
2023-01-24T09:55:27.445Z,-0.90
2023-01-24T09:58:34.397Z,-0.87
2023-01-24T10:01:14.011Z,-0.79
2023-01-24T10:03:47.502Z,-0.74
2023-01-24T10:06:24.837Z,-0.70
2023-01-24T10:09:05.509Z,-0.67
2023-01-24T10:11:57.887Z,-0.65
2023-01-24T10:14:53.391Z,-0.65
2023-01-24T10:17:53.504Z,-0.66
2023-01-24T10:20:49.251Z,-0.62
2023-01-24T10:23:27.192Z,-0.61
2023-01-24T10:26:22.721Z,-0.59
2023-01-24T10:28:58.933Z,-0.52
2023-01-24T10:31:39.374Z,-0.45
2023-01-24T10:34:40.771Z,-0.42
2023-01-24T10:37:23.107Z,-0.41
2023-01-24T10:39:56.134Z,-0.39
2023-01-24T10:42:32.259Z,-0.36
2023-01-24T10:45:22.489Z,-0.34
2023-01-24T10:48:02.543Z,-0.30
2023-01-24T10:50:45.233Z,-0.29
2023-01-24T10:53:31.036Z,-0.31
2023-01-24T10:56:05.938Z,-0.33
2023-01-24T10:59:04.455Z,-0.32
2023-01-24T11:01:49.168Z,-0.36
2023-01-24T11:04:26.792Z,-0.42
2023-01-24T11:06:59.620Z,-0.43
2023-01-24T11:09:35.730Z,-0.43
2023-01-24T11:12:10.657Z,-0.39
2023-01-24T11:14:43.566Z,-0.32
2023-01-24T11:17:39.058Z,-0.30
2023-01-24T11:20:30.999Z,-0.31
2023-01-24T11:23:17.916Z,-0.34
2023-01-24T11:26:01.558Z,-0.34
2023-01-24T11:28:37.994Z,-0.37
2023-01-24T11:31:24.327Z,-0.37
2023-01-24T11:34:43.822Z,-0.36
2023-01-24T11:37:24.282Z,-0.35
2023-01-24T11:40:16.578Z,-0.27
2023-01-24T11:43:13.444Z,-0.17
2023-01-24T11:45:59.404Z,-0.08
2023-01-24T11:48:57.888Z,-0.05
2023-01-24T11:52:05.375Z,-0.05
2023-01-24T11:55:05.889Z,-0.03
2023-01-24T11:57:55.606Z,0.00
2023-01-24T12:00:41.654Z,0.06
2023-01-24T12:03:41.419Z,0.10
2023-01-24T12:06:31.737Z,0.15
2023-01-24T12:09:22.987Z,0.16
2023-01-24T12:12:13.013Z,0.22
2023-01-24T12:15:16.082Z,0.25
2023-01-24T12:18:06.004Z,0.29
2023-01-24T12:21:02.281Z,0.34
2023-01-24T12:23:55.583Z,0.40
2023-01-24T12:26:32.602Z,0.44
2023-01-24T12:29:27.135Z,0.46
2023-01-24T12:32:31.669Z,0.45
2023-01-24T12:35:30.310Z,0.50
2023-01-24T12:38:28.865Z,0.53
2023-01-24T12:41:38.196Z,0.57
2023-01-24T12:44:33.505Z,0.60
2023-01-24T12:47:25.903Z,0.61
2023-01-24T12:50:40.633Z,0.63
2023-01-24T12:53:42.687Z,0.66
2023-01-24T12:56:35.192Z,0.66
2023-01-24T12:59:11.986Z,0.69
2023-01-24T13:02:23.505Z,0.69
2023-01-24T13:05:30.288Z,0.70
2023-01-24T13:08:17.457Z,0.69
2023-01-24T13:11:25.056Z,0.69
2023-01-24T13:14:20.072Z,0.69
2023-01-24T13:17:17.041Z,0.71
2023-01-24T13:20:06.510Z,0.73
2023-01-24T13:23:01.189Z,0.73
2023-01-24T13:25:38.817Z,0.71
2023-01-24T13:28:42.541Z,0.66
2023-01-24T13:31:53.233Z,0.61
2023-01-24T13:34:30.442Z,0.53
2023-01-24T13:37:05.015Z,0.45
2023-01-24T13:39:47.321Z,0.40
2023-01-24T13:42:24.865Z,0.32
2023-01-24T13:44:57.613Z,0.27
2023-01-24T13:47:36.156Z,0.22
2023-01-24T13:50:18.572Z,0.16
2023-01-24T13:52:57.920Z,0.13
2023-01-24T13:55:35.559Z,0.08
2023-01-24T13:58:21.676Z,0.05
2023-01-24T14:00:57.996Z,0.02
2023-01-24T14:03:38.174Z,-0.02
2023-01-24T14:06:14.951Z,-0.04
2023-01-24T14:08:57.929Z,-0.08
2023-01-24T14:11:36.855Z,-0.11
2023-01-24T14:14:32.687Z,-0.14
2023-01-24T14:17:28.682Z,-0.19
2023-01-24T14:20:01.649Z,-0.23
2023-01-24T14:22:38.364Z,-0.26
2023-01-24T14:25:33.861Z,-0.30
2023-01-24T14:28:27.478Z,-0.32
2023-01-24T14:31:09.064Z,-0.34
2023-01-24T14:34:04.794Z,-0.34
2023-01-24T14:36:40.164Z,-0.33
2023-01-24T14:39:27.971Z,-0.32
2023-01-24T14:42:04.243Z,-0.30
2023-01-24T14:44:58.621Z,-0.25
2023-01-24T14:47:32.049Z,-0.21
2023-01-24T14:50:06.355Z,-0.16
2023-01-24T14:52:41.059Z,-0.12
2023-01-24T14:55:21.533Z,-0.08
2023-01-24T14:57:54.622Z,-0.04
2023-01-24T15:00:28.123Z,-0.03
2023-01-24T15:03:06.996Z,-0.01
2023-01-24T15:05:41.585Z,0.01
2023-01-24T15:08:19.260Z,0.06
2023-01-24T15:11:02.331Z,0.10
2023-01-24T15:13:48.111Z,0.14
2023-01-24T15:16:28.654Z,0.16
2023-01-24T15:19:08.387Z,0.19
2023-01-24T15:21:44.651Z,0.21
2023-01-24T15:24:30.426Z,0.23
2023-01-24T15:27:06.950Z,0.25
2023-01-24T15:29:48.964Z,0.25
2023-01-24T15:32:31.904Z,0.23
2023-01-24T15:35:30.331Z,0.22
2023-01-24T15:38:13.513Z,0.23
2023-01-24T15:41:03.805Z,0.25
2023-01-24T15:43:50.656Z,0.27
2023-01-24T15:46:47.204Z,0.30
2023-01-24T15:49:36.305Z,0.30
2023-01-24T15:52:19.950Z,0.32
2023-01-24T15:55:01.864Z,0.31
2023-01-24T15:57:38.361Z,0.32
2023-01-24T16:00:16.050Z,0.34
2023-01-24T16:02:49.584Z,0.36
2023-01-24T16:05:23.423Z,0.37
2023-01-24T16:07:56.308Z,0.38
2023-01-24T16:10:29.602Z,0.38
2023-01-24T16:13:03.571Z,0.37
2023-01-24T16:15:36.858Z,0.38
2023-01-24T16:18:11.809Z,0.41
2023-01-24T16:20:44.545Z,0.43
2023-01-24T16:23:17.492Z,0.44
2023-01-24T16:25:54.206Z,0.46
2023-01-24T16:28:29.266Z,0.47
2023-01-24T16:31:06.302Z,0.48
2023-01-24T16:33:39.889Z,0.48
2023-01-24T16:36:17.105Z,0.48
2023-01-24T16:38:50.097Z,0.49
2023-01-24T16:41:23.642Z,0.49
2023-01-24T16:43:57.267Z,0.50
2023-01-24T16:46:30.237Z,0.49
2023-01-24T16:49:03.052Z,0.50
2023-01-24T16:51:36.051Z,0.49
2023-01-24T16:54:08.707Z,0.47
2023-01-24T16:56:43.815Z,0.47
2023-01-24T16:59:16.660Z,0.45
2023-01-24T17:01:50.698Z,0.45
2023-01-24T17:04:24.098Z,0.46
2023-01-24T17:07:04.753Z,0.47
2023-01-24T17:09:38.406Z,0.46
2023-01-24T17:12:14.711Z,0.46
2023-01-24T17:14:47.407Z,0.47
2023-01-24T17:17:20.222Z,0.49
2023-01-24T17:19:53.217Z,0.47
2023-01-24T17:22:26.185Z,0.46
2023-01-24T17:24:59.095Z,0.44
2023-01-24T17:27:32.995Z,0.44
2023-01-24T17:30:07.351Z,0.44
2023-01-24T17:32:40.732Z,0.42
2023-01-24T17:35:14.209Z,0.39
2023-01-24T17:37:47.285Z,0.38
2023-01-24T17:40:20.233Z,0.37
2023-01-24T17:42:53.261Z,0.35
2023-01-24T17:45:26.733Z,0.34
2023-01-24T17:47:59.919Z,0.33
2023-01-24T17:50:33.064Z,0.30
2023-01-24T17:53:05.899Z,0.28
2023-01-24T17:55:39.390Z,0.27
2023-01-24T17:58:13.503Z,0.24
2023-01-24T18:00:46.901Z,0.21
2023-01-24T18:03:21.504Z,0.19
2023-01-24T18:05:55.765Z,0.17
2023-01-24T18:08:28.917Z,0.16
2023-01-24T18:11:13.446Z,0.13
2023-01-24T18:13:47.035Z,0.09
2023-01-24T18:16:22.556Z,0.08
2023-01-24T18:18:55.601Z,0.04
2023-01-24T18:21:29.148Z,0.02
2023-01-24T18:24:03.737Z,-0.03
2023-01-24T18:26:38.833Z,-0.05
2023-01-24T18:29:12.459Z,-0.08
2023-01-24T18:31:47.710Z,-0.11
2023-01-24T18:34:20.715Z,-0.15
2023-01-24T18:36:53.783Z,-0.19
2023-01-24T18:39:26.899Z,-0.21
2023-01-24T18:42:04.780Z,-0.21
2023-01-24T18:44:39.412Z,-0.24
2023-01-24T18:47:12.548Z,-0.26
2023-01-24T18:49:46.169Z,-0.30
2023-01-24T18:52:19.875Z,-0.33
2023-01-24T18:54:52.755Z,-0.33
2023-01-24T18:57:25.888Z,-0.34
2023-01-24T18:59:58.649Z,-0.38
2023-01-24T19:02:31.566Z,-0.44
2023-01-24T19:05:05.848Z,-0.52
2023-01-24T19:07:42.055Z,-0.62
2023-01-24T19:10:16.013Z,-0.70
2023-01-24T19:12:49.415Z,-0.81
2023-01-24T19:15:23.014Z,-0.91
2023-01-24T19:17:56.307Z,-1.00
2023-01-24T19:20:29.166Z,-1.07
2023-01-24T19:23:02.343Z,-1.15
2023-01-24T19:25:35.282Z,-1.21
2023-01-24T19:28:08.304Z,-1.25
2023-01-24T19:30:41.722Z,-1.32
2023-01-24T19:33:14.762Z,-1.35
2023-01-24T19:35:48.273Z,-1.41
2023-01-24T19:38:21.819Z,-1.46
2023-01-24T19:40:54.834Z,-1.51
2023-01-24T19:43:29.593Z,-1.55
2023-01-24T19:46:10.871Z,-1.60
2023-01-24T19:48:38.023Z,-1.65
2023-01-24T19:51:12.832Z,-1.68
2023-01-24T19:53:46.083Z,-1.70
2023-01-24T19:56:19.581Z,-1.73
2023-01-24T19:58:52.431Z,-1.77
2023-01-24T20:01:25.725Z,-1.83
2023-01-24T20:04:21.534Z,-1.86
2023-01-24T20:06:34.826Z,-1.91
2023-01-24T20:09:08.799Z,-1.95
2023-01-24T20:11:42.540Z,-2.02
2023-01-24T20:14:15.863Z,-2.05
2023-01-24T20:16:48.888Z,-2.09
2023-01-24T20:19:28.533Z,-2.12
2023-01-24T20:21:57.692Z,-2.15
2023-01-24T20:24:31.360Z,-2.15
2023-01-24T20:27:04.177Z,-2.19
2023-01-24T20:29:37.231Z,-2.23
2023-01-24T20:32:12.492Z,-2.26
2023-01-24T20:34:46.346Z,-2.31
2023-01-24T20:37:19.289Z,-2.36
2023-01-24T20:39:52.379Z,-2.40
2023-01-24T20:42:25.369Z,-2.41
2023-01-24T20:44:58.314Z,-2.41
2023-01-24T20:47:31.323Z,-2.43
2023-01-24T20:50:05.290Z,-2.44
2023-01-24T20:52:38.476Z,-2.46
2023-01-24T20:55:11.863Z,-2.48
2023-01-24T20:57:44.974Z,-2.50
2023-01-24T21:00:19.184Z,-2.50
2023-01-24T21:02:57.368Z,-2.52
2023-01-24T21:05:33.774Z,-2.53
2023-01-24T21:08:06.951Z,-2.53
2023-01-24T21:10:48.919Z,-2.54
2023-01-24T21:13:32.481Z,-2.53
2023-01-24T21:15:57.075Z,-2.55
2023-01-24T21:18:29.855Z,-2.55
2023-01-24T21:21:02.807Z,-2.57
2023-01-24T21:23:37.447Z,-2.56
2023-01-24T21:26:12.783Z,-2.59
2023-01-24T21:28:49.860Z,-2.61
2023-01-24T21:31:24.862Z,-2.65
2023-01-24T21:33:58.019Z,-2.67
2023-01-24T21:36:32.592Z,-2.68
2023-01-24T21:39:08.631Z,-2.70
2023-01-24T21:41:57.187Z,-2.71
2023-01-24T21:44:36.386Z,-2.76
2023-01-24T21:47:11.640Z,-2.77
2023-01-24T21:49:45.048Z,-2.80
2023-01-24T21:52:18.637Z,-2.82
2023-01-24T21:54:51.780Z,-2.86
2023-01-24T21:57:42.334Z,-2.88
2023-01-24T22:00:18.147Z,-2.91
2023-01-24T22:02:53.012Z,-2.95
2023-01-24T22:05:26.350Z,-2.99
2023-01-24T22:07:59.490Z,-3.03
2023-01-24T22:10:32.377Z,-3.07
2023-01-24T22:13:05.593Z,-3.10
2023-01-24T22:15:39.593Z,-3.12
2023-01-24T22:18:14.148Z,-3.13
2023-01-24T22:20:47.200Z,-3.14
2023-01-24T22:23:24.759Z,-3.16
2023-01-24T22:26:08.369Z,-3.16
2023-01-24T22:28:41.781Z,-3.19
2023-01-24T22:31:15.557Z,-3.21
2023-01-24T22:33:48.897Z,-3.22
2023-01-24T22:36:22.152Z,-3.24
2023-01-24T22:38:55.128Z,-3.25
2023-01-24T22:41:28.001Z,-3.27
2023-01-24T22:44:00.812Z,-3.26
2023-01-24T22:46:33.707Z,-3.26
2023-01-24T22:49:06.745Z,-3.28
2023-01-24T22:51:39.610Z,-3.29
2023-01-24T22:54:12.707Z,-3.32
2023-01-24T22:56:45.759Z,-3.33
2023-01-24T22:59:18.804Z,-3.36
2023-01-24T23:01:52.044Z,-3.39
2023-01-24T23:04:24.842Z,-3.38
2023-01-24T23:06:57.634Z,-3.41
2023-01-24T23:09:30.419Z,-3.43
2023-01-24T23:12:03.346Z,-3.47
2023-01-24T23:14:55.131Z,-3.51
2023-01-24T23:17:28.744Z,-3.51
2023-01-24T23:20:19.230Z,-3.54
2023-01-24T23:22:52.165Z,-3.54
2023-01-24T23:25:26.118Z,-3.55
2023-01-24T23:27:59.412Z,-3.55
2023-01-24T23:31:04.488Z,-3.55
2023-01-24T23:33:43.270Z,-3.57
2023-01-24T23:36:16.094Z,-3.58
2023-01-24T23:38:49.003Z,-3.58
2023-01-24T23:41:21.834Z,-3.59
2023-01-24T23:43:54.632Z,-3.59
2023-01-24T23:46:27.632Z,-3.58
2023-01-24T23:49:00.646Z,-3.58
2023-01-24T23:51:33.761Z,-3.57
2023-01-24T23:54:06.723Z,-3.58
2023-01-24T23:56:40.055Z,-3.59
2023-01-24T23:59:12.871Z,-3.62
